createdAt,value
2023-03-01T00:00:06.017Z,5.24
2023-03-01T00:02:32.837Z,5.24
2023-03-01T00:04:59.177Z,5.24
2023-03-01T00:07:25.506Z,5.25
2023-03-01T00:09:51.836Z,5.26
2023-03-01T00:12:18.427Z,5.26
2023-03-01T00:14:45.878Z,5.26
2023-03-01T00:17:12.476Z,5.25
2023-03-01T00:19:38.808Z,5.23
2023-03-01T00:22:05.241Z,5.21
2023-03-01T00:24:31.671Z,5.19
2023-03-01T00:26:58.102Z,5.15
2023-03-01T00:29:25.864Z,5.13
2023-03-01T00:31:52.265Z,5.11
2023-03-01T00:34:19.035Z,5.09
2023-03-01T00:36:45.465Z,5.06
2023-03-01T00:39:15.515Z,5.01
2023-03-01T00:41:43.144Z,4.97
2023-03-01T00:44:09.989Z,4.94
2023-03-01T00:46:36.467Z,4.92
2023-03-01T00:49:05.374Z,4.87
2023-03-01T00:51:32.766Z,4.83
2023-03-01T00:54:02.243Z,4.79
2023-03-01T00:56:30.156Z,4.77
2023-03-01T00:58:57.162Z,4.73
2023-03-01T01:01:28.281Z,4.70
2023-03-01T01:03:58.067Z,4.67
2023-03-01T01:06:27.513Z,4.64
2023-03-01T01:08:55.575Z,4.63
2023-03-01T01:11:24.199Z,4.60
2023-03-01T01:13:51.082Z,4.59
2023-03-01T01:16:21.733Z,4.56
2023-03-01T01:18:48.480Z,4.54
2023-03-01T01:21:19.012Z,4.52
2023-03-01T01:23:46.236Z,4.51
2023-03-01T01:26:15.642Z,4.48
2023-03-01T01:28:43.243Z,4.46
2023-03-01T01:31:09.672Z,4.45
2023-03-01T01:33:36.154Z,4.44
2023-03-01T01:36:02.836Z,4.42
2023-03-01T01:38:29.296Z,4.39
2023-03-01T01:40:55.967Z,4.38
2023-03-01T01:43:31.793Z,4.34
2023-03-01T01:46:03.068Z,4.34
2023-03-01T01:48:41.489Z,4.33
2023-03-01T01:51:12.717Z,4.31
2023-03-01T01:53:41.021Z,4.30
2023-03-01T01:56:09.383Z,4.31
2023-03-01T01:58:36.824Z,4.33
2023-03-01T02:01:04.320Z,4.31
2023-03-01T02:03:34.646Z,4.30
2023-03-01T02:06:10.306Z,4.27
2023-03-01T02:08:39.521Z,4.24
2023-03-01T02:11:06.543Z,4.23
2023-03-01T02:13:34.610Z,4.21
2023-03-01T02:16:04.884Z,4.20
2023-03-01T02:18:31.489Z,4.18
2023-03-01T02:21:32.919Z,4.17
2023-03-01T02:24:12.071Z,4.13
2023-03-01T02:26:46.313Z,4.10
2023-03-01T02:29:12.813Z,4.07
2023-03-01T02:31:46.063Z,4.05
2023-03-01T02:34:17.918Z,4.02
2023-03-01T02:37:09.318Z,3.97
2023-03-01T02:39:43.012Z,3.99
2023-03-01T02:42:13.770Z,3.98
2023-03-01T02:44:40.154Z,3.97
2023-03-01T02:47:07.224Z,3.98
2023-03-01T02:49:37.711Z,3.97
2023-03-01T02:52:22.148Z,3.94
2023-03-01T02:54:57.478Z,3.93
2023-03-01T02:57:25.931Z,3.94
2023-03-01T02:59:53.898Z,3.92
2023-03-01T03:02:36.902Z,3.90
2023-03-01T03:05:14.462Z,3.90
2023-03-01T03:07:42.810Z,3.88
2023-03-01T03:10:12.121Z,3.88
2023-03-01T03:12:39.250Z,3.88
2023-03-01T03:15:09.759Z,3.84
2023-03-01T03:17:38.370Z,3.81
2023-03-01T03:20:12.560Z,3.79
2023-03-01T03:22:42.104Z,3.76
2023-03-01T03:25:12.661Z,3.73
2023-03-01T03:27:40.406Z,3.72
2023-03-01T03:30:13.221Z,3.69
2023-03-01T03:32:41.516Z,3.69
2023-03-01T03:35:10.453Z,3.68
2023-03-01T03:37:57.728Z,3.68
2023-03-01T03:40:24.235Z,3.68
2023-03-01T03:42:50.954Z,3.64
2023-03-01T03:45:18.326Z,3.61
2023-03-01T03:47:45.690Z,3.61
2023-03-01T03:50:14.890Z,3.59
2023-03-01T03:52:41.568Z,3.58
2023-03-01T03:55:10.567Z,3.57
2023-03-01T03:57:39.369Z,3.55
2023-03-01T04:00:13.779Z,3.54
2023-03-01T04:02:41.952Z,3.51
2023-03-01T04:05:10.212Z,3.50
2023-03-01T04:07:37.435Z,3.49
2023-03-01T04:10:09.126Z,3.47
2023-03-01T04:12:35.836Z,3.46
2023-03-01T04:15:13.485Z,3.46
2023-03-01T04:17:44.872Z,3.43
2023-03-01T04:20:25.663Z,3.42
2023-03-01T04:23:17.342Z,3.39
2023-03-01T04:26:04.294Z,3.36
2023-03-01T04:28:40.879Z,3.36
2023-03-01T04:31:18.503Z,3.36
2023-03-01T04:33:53.484Z,3.34
2023-03-01T04:36:22.916Z,3.32
2023-03-01T04:38:49.422Z,3.30
2023-03-01T04:41:18.804Z,3.29
2023-03-01T04:43:45.617Z,3.28
2023-03-01T04:46:15.953Z,3.25
2023-03-01T04:48:45.243Z,3.25
2023-03-01T04:51:14.614Z,3.22
2023-03-01T04:53:42.508Z,3.23
2023-03-01T04:56:09.217Z,3.22
2023-03-01T04:58:35.732Z,3.21
2023-03-01T05:01:02.335Z,3.20
2023-03-01T05:03:29.786Z,3.19
2023-03-01T05:06:00.888Z,3.18
2023-03-01T05:08:28.147Z,3.17
2023-03-01T05:10:55.380Z,3.16
2023-03-01T05:13:22.734Z,3.15
2023-03-01T05:16:00.839Z,3.13
2023-03-01T05:18:28.158Z,3.15
2023-03-01T05:21:08.003Z,3.13
2023-03-01T05:23:41.239Z,3.13
2023-03-01T05:26:22.433Z,3.10
2023-03-01T05:28:57.975Z,3.07
2023-03-01T05:31:25.835Z,3.06
2023-03-01T05:33:56.565Z,3.04
2023-03-01T05:36:24.653Z,3.03
2023-03-01T05:38:51.960Z,3.04
2023-03-01T05:41:19.214Z,3.03
2023-03-01T05:43:47.834Z,3.03
2023-03-01T05:46:16.573Z,3.01
2023-03-01T05:48:43.446Z,3.00
2023-03-01T05:51:14.099Z,2.99
2023-03-01T05:53:42.368Z,2.97
2023-03-01T05:56:09.382Z,2.97
2023-03-01T05:58:36.145Z,2.97
2023-03-01T06:01:02.496Z,2.97
2023-03-01T06:03:30.797Z,2.94
2023-03-01T06:05:59.094Z,2.97
2023-03-01T06:08:31.597Z,2.97
2023-03-01T06:10:58.579Z,2.95
2023-03-01T06:16:16.001Z,2.95
2023-03-01T06:18:42.548Z,2.95
2023-03-01T06:21:10.007Z,2.95
2023-03-01T06:23:36.589Z,2.96
2023-03-01T06:26:06.986Z,2.96
2023-03-01T06:28:33.382Z,2.98
2023-03-01T06:31:00.045Z,2.97
2023-03-01T06:33:27.755Z,2.98
2023-03-01T06:35:57.769Z,2.99
2023-03-01T06:38:25.968Z,3.00
2023-03-01T06:40:55.361Z,3.02
2023-03-01T06:43:22.358Z,3.05
2023-03-01T06:45:48.864Z,3.08
2023-03-01T06:48:15.260Z,3.11
2023-03-01T06:50:41.840Z,3.15
2023-03-01T06:53:08.620Z,3.20
2023-03-01T06:55:35.080Z,3.24
2023-03-01T06:58:02.938Z,3.28
2023-03-01T07:00:29.897Z,3.35
2023-03-01T07:02:59.801Z,3.39
2023-03-01T07:05:26.201Z,3.46
2023-03-01T07:07:54.734Z,3.50
2023-03-01T07:10:21.330Z,3.58
2023-03-01T07:12:47.789Z,3.65
2023-03-01T07:15:16.186Z,3.70
2023-03-01T07:17:42.833Z,3.76
2023-03-01T07:20:10.045Z,3.82
2023-03-01T07:22:36.425Z,3.88
2023-03-01T07:25:02.879Z,3.93
2023-03-01T07:27:29.289Z,3.99
2023-03-01T07:29:55.663Z,4.06
2023-03-01T07:32:22.685Z,4.11
2023-03-01T07:34:49.349Z,4.18
2023-03-01T07:37:15.746Z,4.25
2023-03-01T07:39:42.454Z,4.29
2023-03-01T07:42:09.818Z,4.37
2023-03-01T07:44:36.511Z,4.44
2023-03-01T07:47:05.012Z,4.52
2023-03-01T07:49:32.182Z,4.59
2023-03-01T07:51:58.612Z,4.68
2023-03-01T07:54:25.433Z,4.76
2023-03-01T07:56:52.016Z,4.84
2023-03-01T07:59:18.764Z,4.90
2023-03-01T08:01:45.359Z,4.99
2023-03-01T08:04:11.879Z,5.07
2023-03-01T08:06:38.275Z,5.14
2023-03-01T08:09:04.738Z,5.21
2023-03-01T08:11:31.392Z,5.28
2023-03-01T08:13:59.207Z,5.36
2023-03-01T08:16:26.281Z,5.41
2023-03-01T08:18:52.721Z,5.48
2023-03-01T08:21:19.717Z,5.53
2023-03-01T08:23:46.501Z,5.58
2023-03-01T08:26:20.136Z,5.64
2023-03-01T08:28:47.989Z,5.70
2023-03-01T08:31:22.207Z,5.76
2023-03-01T08:33:57.428Z,5.82
2023-03-01T08:36:26.620Z,5.89
2023-03-01T08:38:55.137Z,5.96
2023-03-01T08:41:22.058Z,6.01
2023-03-01T08:43:50.986Z,6.06
2023-03-01T08:46:17.722Z,6.10
2023-03-01T08:48:44.173Z,6.17
2023-03-01T08:51:14.179Z,6.23
2023-03-01T08:53:42.716Z,6.28
2023-03-01T08:56:13.043Z,6.31
2023-03-01T08:58:42.519Z,6.35
2023-03-01T09:01:10.612Z,6.41
2023-03-01T09:03:38.766Z,6.46
2023-03-01T09:06:08.613Z,6.50
2023-03-01T09:08:37.040Z,6.54
2023-03-01T09:11:06.922Z,6.61
2023-03-01T09:13:33.946Z,6.69
2023-03-01T09:16:02.437Z,6.74
2023-03-01T09:18:29.059Z,6.80
2023-03-01T09:21:03.378Z,6.86
2023-03-01T09:23:29.967Z,6.91
2023-03-01T09:25:56.670Z,6.98
2023-03-01T09:28:30.001Z,7.05
2023-03-01T09:33:55.757Z,7.22
2023-03-01T09:36:26.451Z,7.31
2023-03-01T09:38:54.120Z,7.40
2023-03-01T09:41:45.376Z,7.49
2023-03-01T09:44:19.976Z,7.57
2023-03-01T09:46:47.197Z,7.65
2023-03-01T09:49:20.480Z,7.73
2023-03-01T09:51:56.739Z,7.80
2023-03-01T09:54:23.438Z,7.89
2023-03-01T09:57:14.322Z,7.95
2023-03-01T09:59:59.489Z,8.06
2023-03-01T10:02:42.659Z,8.13
2023-03-01T10:05:30.245Z,8.21
2023-03-01T10:08:19.255Z,8.31
2023-03-01T10:10:48.365Z,8.40
2023-03-01T10:13:25.108Z,8.45
2023-03-01T10:15:56.135Z,8.53
2023-03-01T10:18:34.748Z,8.58
2023-03-01T10:21:04.359Z,8.65
2023-03-01T10:23:36.777Z,8.71
2023-03-01T10:26:31.278Z,8.78
2023-03-01T10:29:08.767Z,8.87
2023-03-01T10:31:44.091Z,8.95
2023-03-01T10:34:19.429Z,9.04
2023-03-01T10:36:50.609Z,9.12
2023-03-01T10:39:23.137Z,9.18
2023-03-01T10:42:03.128Z,9.24
2023-03-01T10:44:44.946Z,9.31
2023-03-01T10:47:26.391Z,9.39
2023-03-01T10:50:09.678Z,9.43
2023-03-01T10:52:38.755Z,9.51
2023-03-01T10:55:28.061Z,9.53
2023-03-01T10:58:21.088Z,9.58
2023-03-01T11:00:54.530Z,9.65
2023-03-01T11:03:24.713Z,9.69
2023-03-01T11:05:58.148Z,9.72
2023-03-01T11:08:43.481Z,9.75
2023-03-01T11:11:33.249Z,9.80
2023-03-01T11:14:23.654Z,9.87
2023-03-01T11:17:13.809Z,9.87
2023-03-01T11:19:40.322Z,9.95
2023-03-01T11:22:18.952Z,9.98
2023-03-01T11:24:57.250Z,10.02
2023-03-01T11:27:33.877Z,10.05
2023-03-01T11:30:15.278Z,10.07
2023-03-01T11:32:56.341Z,10.10
2023-03-01T11:35:26.384Z,10.16
2023-03-01T11:38:17.889Z,10.16
2023-03-01T11:41:17.718Z,10.22
2023-03-01T11:44:02.419Z,10.25
2023-03-01T11:47:15.713Z,10.29
2023-03-01T11:50:03.177Z,10.38
2023-03-01T11:52:56.048Z,10.45
2023-03-01T11:55:54.557Z,10.45
2023-03-01T11:58:58.058Z,10.50
2023-03-01T12:01:42.177Z,10.57
2023-03-01T12:04:46.160Z,10.60
2023-03-01T12:07:37.102Z,10.65
2023-03-01T12:10:22.975Z,10.70
2023-03-01T12:13:13.270Z,10.75
2023-03-01T12:16:25.921Z,10.77
2023-03-01T12:19:07.195Z,10.88
2023-03-01T12:21:42.082Z,10.87
2023-03-01T12:24:41.275Z,10.88
2023-03-01T12:27:20.711Z,10.93
2023-03-01T12:29:53.256Z,10.97
2023-03-01T12:32:45.434Z,10.96
2023-03-01T12:35:33.909Z,11.00
2023-03-01T12:38:09.128Z,11.05
2023-03-01T12:40:47.708Z,11.10
2023-03-01T12:43:34.162Z,11.13
2023-03-01T12:46:22.130Z,11.17
2023-03-01T12:49:11.776Z,11.22
2023-03-01T12:51:40.398Z,11.27
2023-03-01T12:54:16.024Z,11.30
2023-03-01T12:56:43.762Z,11.37
2023-03-01T12:59:10.058Z,11.39
2023-03-01T13:01:46.841Z,11.41
2023-03-01T13:04:20.472Z,11.45
2023-03-01T13:07:01.090Z,11.49
2023-03-01T13:09:36.474Z,11.53
2023-03-01T13:12:08.056Z,11.59
2023-03-01T13:14:38.145Z,11.63
2023-03-01T13:17:04.653Z,11.68
2023-03-01T13:19:33.422Z,11.70
2023-03-01T13:22:00.415Z,11.74
2023-03-01T13:24:43.387Z,11.74
2023-03-01T13:27:12.417Z,11.80
2023-03-01T13:29:46.118Z,11.85
2023-03-01T13:32:43.135Z,11.91
2023-03-01T13:35:17.952Z,11.96
2023-03-01T13:37:45.491Z,12.01
2023-03-01T13:40:19.517Z,12.01
2023-03-01T13:43:05.184Z,12.02
2023-03-01T13:45:40.522Z,12.05
2023-03-01T13:48:16.080Z,12.07
2023-03-01T13:50:52.533Z,12.08
2023-03-01T13:53:22.276Z,12.10
2023-03-01T13:55:57.005Z,12.11
2023-03-01T13:58:28.129Z,12.14
2023-03-01T14:01:21.054Z,12.14
2023-03-01T14:03:47.678Z,12.19
2023-03-01T14:06:20.874Z,12.20
2023-03-01T14:09:15.559Z,12.18
2023-03-01T14:12:14.383Z,12.21
2023-03-01T14:14:51.094Z,12.22
2023-03-01T14:17:42.888Z,12.21
2023-03-01T14:20:18.133Z,12.23
2023-03-01T14:22:45.817Z,12.22
2023-03-01T14:25:31.015Z,12.21
2023-03-01T14:28:05.438Z,12.25
2023-03-01T14:30:39.407Z,12.25
2023-03-01T14:33:18.789Z,12.27
2023-03-01T14:35:54.924Z,12.26
2023-03-01T14:38:39.309Z,12.28
2023-03-01T14:41:28.524Z,12.30
2023-03-01T14:44:06.591Z,12.33
2023-03-01T14:46:41.840Z,12.35
2023-03-01T14:49:22.826Z,12.37
2023-03-01T14:52:01.590Z,12.38
2023-03-01T14:54:58.441Z,12.39
2023-03-01T14:57:27.321Z,12.42
2023-03-01T14:59:58.222Z,12.43
2023-03-01T15:02:28.220Z,12.43
2023-03-01T15:05:08.071Z,12.41
2023-03-01T15:07:41.508Z,12.42
2023-03-01T15:10:18.447Z,12.39
2023-03-01T15:12:45.104Z,12.41
2023-03-01T15:15:31.070Z,12.38
2023-03-01T15:18:04.126Z,12.39
2023-03-01T15:20:36.167Z,12.40
2023-03-01T15:23:03.499Z,12.42
2023-03-01T15:25:31.968Z,12.42
2023-03-01T15:28:01.227Z,12.40
2023-03-01T15:30:38.685Z,12.36
2023-03-01T15:33:36.126Z,12.32
2023-03-01T15:36:24.718Z,12.35
2023-03-01T15:38:56.419Z,12.35
2023-03-01T15:41:29.383Z,12.31
2023-03-01T15:43:56.648Z,12.29
2023-03-01T15:46:31.087Z,12.25
2023-03-01T15:49:00.774Z,12.22
2023-03-01T15:51:46.913Z,12.18
2023-03-01T15:54:22.085Z,12.16
2023-03-01T15:56:49.588Z,12.16
2023-03-01T15:59:16.221Z,12.17
2023-03-01T16:01:44.954Z,12.14
2023-03-01T16:04:21.439Z,12.13
2023-03-01T16:06:54.879Z,12.12
2023-03-01T16:09:23.967Z,12.10
2023-03-01T16:11:51.645Z,12.07
2023-03-01T16:14:18.204Z,12.05
2023-03-01T16:16:45.222Z,12.04
2023-03-01T16:19:12.414Z,12.02
2023-03-01T16:21:39.150Z,11.99
2023-03-01T16:24:06.096Z,11.97
2023-03-01T16:26:33.227Z,11.94
2023-03-01T16:28:59.997Z,11.91
2023-03-01T16:31:30.114Z,11.89
2023-03-01T16:33:58.564Z,11.85
2023-03-01T16:36:28.970Z,11.81
2023-03-01T16:38:58.527Z,11.78
2023-03-01T16:41:25.655Z,11.74
2023-03-01T16:43:52.300Z,11.70
2023-03-01T16:46:25.592Z,11.63
2023-03-01T16:48:53.200Z,11.61
2023-03-01T16:51:21.059Z,11.54
2023-03-01T16:53:48.045Z,11.51
2023-03-01T16:56:15.483Z,11.43
2023-03-01T16:58:42.631Z,11.39
2023-03-01T17:01:15.252Z,11.33
2023-03-01T17:03:42.370Z,11.28
2023-03-01T17:06:15.214Z,11.21
2023-03-01T17:08:41.989Z,11.16
2023-03-01T17:11:15.082Z,11.08
2023-03-01T17:13:42.419Z,11.04
2023-03-01T17:16:11.845Z,10.98
2023-03-01T17:18:38.963Z,10.94
2023-03-01T17:21:07.781Z,10.89
2023-03-01T17:23:35.860Z,10.87
2023-03-01T17:26:02.717Z,10.88
2023-03-01T17:28:31.849Z,10.87
2023-03-01T17:31:00.289Z,10.86
2023-03-01T17:33:27.432Z,10.87
2023-03-01T17:35:56.494Z,10.87
2023-03-01T17:38:23.066Z,10.86
2023-03-01T17:40:49.897Z,10.85
2023-03-01T17:43:18.005Z,10.83
2023-03-01T17:45:48.738Z,10.82
2023-03-01T17:48:17.031Z,10.81
2023-03-01T17:50:43.624Z,10.81
2023-03-01T17:53:10.526Z,10.77
2023-03-01T17:55:38.237Z,10.77
2023-03-01T17:58:06.012Z,10.76
2023-03-01T18:00:32.537Z,10.75
2023-03-01T18:02:59.075Z,10.73
2023-03-01T18:05:26.131Z,10.71
2023-03-01T18:07:53.611Z,10.69
2023-03-01T18:10:20.596Z,10.66
2023-03-01T18:12:47.039Z,10.63
2023-03-01T18:15:13.425Z,10.62
2023-03-01T18:17:40.703Z,10.58
2023-03-01T18:20:07.962Z,10.54
2023-03-01T18:22:34.394Z,10.51
2023-03-01T18:25:01.777Z,10.47
2023-03-01T18:27:28.237Z,10.43
2023-03-01T18:29:57.035Z,10.40
2023-03-01T18:32:24.808Z,10.38
2023-03-01T18:34:51.249Z,10.36
2023-03-01T18:37:18.721Z,10.32
2023-03-01T18:39:45.094Z,10.27
2023-03-01T18:42:11.751Z,10.24
2023-03-01T18:44:38.510Z,10.21
2023-03-01T18:47:06.030Z,10.18
2023-03-01T18:49:32.360Z,10.16
2023-03-01T18:52:00.150Z,10.13
2023-03-01T18:54:26.460Z,10.11
2023-03-01T18:56:52.883Z,10.08
2023-03-01T18:59:19.474Z,10.04
2023-03-01T19:01:45.948Z,10.01
2023-03-01T19:04:12.721Z,10.00
2023-03-01T19:06:39.298Z,9.97
2023-03-01T19:09:08.861Z,9.95
2023-03-01T19:11:35.852Z,9.93
2023-03-01T19:14:03.761Z,9.90
2023-03-01T19:16:36.814Z,9.87
2023-03-01T19:19:06.323Z,9.85
2023-03-01T19:21:33.504Z,9.84
2023-03-01T19:24:02.563Z,9.81
2023-03-01T19:26:29.156Z,9.79
2023-03-01T19:28:56.652Z,9.77
2023-03-01T19:31:26.205Z,9.76
2023-03-01T19:33:59.416Z,9.73
2023-03-01T19:36:35.024Z,9.69
2023-03-01T19:39:04.011Z,9.66
2023-03-01T19:41:31.280Z,9.65
2023-03-01T19:43:58.156Z,9.63
2023-03-01T19:46:25.504Z,9.59
2023-03-01T19:48:53.556Z,9.57
2023-03-01T19:51:20.183Z,9.56
2023-03-01T19:53:47.537Z,9.54
2023-03-01T19:56:13.905Z,9.53
2023-03-01T19:58:40.319Z,9.51
2023-03-01T20:01:15.329Z,9.49
2023-03-01T20:03:42.240Z,9.48
2023-03-01T20:06:14.644Z,9.47
2023-03-01T20:08:41.157Z,9.45
2023-03-01T20:11:10.063Z,9.43
2023-03-01T20:13:37.022Z,9.43
2023-03-01T20:16:04.960Z,9.43
2023-03-01T20:18:32.069Z,9.39
2023-03-01T20:20:59.885Z,9.40
2023-03-01T20:23:26.862Z,9.37
2023-03-01T20:26:01.901Z,9.34
2023-03-01T20:28:28.265Z,9.34
2023-03-01T20:30:54.855Z,9.32
2023-03-01T20:33:21.211Z,9.32
2023-03-01T20:35:47.827Z,9.30
2023-03-01T20:38:14.229Z,9.27
2023-03-01T20:40:40.822Z,9.27
2023-03-01T20:43:07.185Z,9.27
2023-03-01T20:45:33.544Z,9.25
2023-03-01T20:48:00.222Z,9.23
2023-03-01T20:50:26.784Z,9.22
2023-03-01T20:52:53.370Z,9.20
2023-03-01T20:55:19.747Z,9.18
2023-03-01T20:57:46.056Z,9.15
2023-03-01T21:00:13.004Z,9.15
2023-03-01T21:02:39.380Z,9.15
2023-03-01T21:05:06.707Z,9.14
2023-03-01T21:07:33.339Z,9.15
2023-03-01T21:09:59.934Z,9.14
2023-03-01T21:12:26.513Z,9.14
2023-03-01T21:15:09.722Z,9.10
2023-03-01T21:17:37.601Z,9.12
2023-03-01T21:20:04.965Z,9.10
2023-03-01T21:22:32.955Z,9.07
2023-03-01T21:24:59.320Z,9.06
2023-03-01T21:27:25.638Z,9.05
2023-03-01T21:29:52.048Z,9.05
2023-03-01T21:32:21.086Z,9.02
2023-03-01T21:34:47.967Z,9.02
2023-03-01T21:37:14.416Z,9.01
2023-03-01T21:39:41.021Z,9.00
2023-03-01T21:42:07.379Z,8.99
2023-03-01T21:44:34.286Z,8.98
2023-03-01T21:47:00.909Z,8.97
2023-03-01T21:49:27.972Z,8.96
2023-03-01T21:51:54.851Z,8.96
2023-03-01T21:54:21.506Z,8.94
2023-03-01T21:56:50.838Z,8.94
2023-03-01T21:59:24.306Z,8.92
2023-03-01T22:01:51.924Z,8.90
2023-03-01T22:04:19.958Z,8.88
2023-03-01T22:06:47.291Z,8.86
2023-03-01T22:09:21.867Z,8.83
2023-03-01T22:11:50.122Z,8.83
2023-03-01T22:14:18.265Z,8.83
2023-03-01T22:16:45.637Z,8.82
2023-03-01T22:19:14.816Z,8.81
2023-03-01T22:21:43.827Z,8.79
2023-03-01T22:24:12.151Z,8.78
2023-03-01T22:26:44.364Z,8.73
2023-03-01T22:29:14.908Z,8.71
2023-03-01T22:31:41.990Z,8.70
2023-03-01T22:34:08.754Z,8.67
2023-03-01T22:36:35.467Z,8.64
2023-03-01T22:39:02.488Z,8.64
2023-03-01T22:41:39.248Z,8.60
2023-03-01T22:44:05.561Z,8.61
2023-03-01T22:46:32.657Z,8.60
2023-03-01T22:48:59.500Z,8.60
2023-03-01T22:51:34.788Z,8.55
2023-03-01T22:54:01.472Z,8.56
2023-03-01T22:56:34.663Z,8.52
2023-03-01T22:59:09.582Z,8.50
2023-03-01T23:01:37.738Z,8.49
2023-03-01T23:04:04.371Z,8.46
2023-03-01T23:06:31.704Z,8.45
2023-03-01T23:09:01.274Z,8.43
2023-03-01T23:11:28.127Z,8.43
2023-03-01T23:13:54.947Z,8.42
2023-03-01T23:16:26.169Z,8.40
2023-03-01T23:18:58.169Z,8.38
2023-03-01T23:21:24.982Z,8.38
2023-03-01T23:23:51.716Z,8.37
2023-03-01T23:26:18.549Z,8.36
2023-03-01T23:28:45.261Z,8.35
2023-03-01T23:31:14.127Z,8.33
2023-03-01T23:33:43.350Z,8.32
2023-03-01T23:36:21.569Z,8.30
2023-03-01T23:38:49.919Z,8.29
2023-03-01T23:41:19.579Z,8.30
2023-03-01T23:43:47.372Z,8.25
2023-03-01T23:46:17.927Z,8.23
2023-03-01T23:48:45.624Z,8.23
2023-03-01T23:51:13.557Z,8.21
2023-03-01T23:53:43.132Z,8.19
2023-03-01T23:56:13.397Z,8.17
2023-03-01T23:58:40.042Z,8.15
